Terminal Aerodrome Forecast
Issued by NWS Wilmington, NC

Home | Current Version | Previous Version | Text Only | Print | Product List | Glossary On
Versions: 1 2 3 4 5 6 7 8 9 10 11 12 13 14 15 16 17 18 19 20 21
462
FTUS42 KILM 070543 CCA
TAFMYR
TAF COR
KMYR 070543Z 0706/0806 02013G20KT 6SM -RA OVC040
     FM070700 02017G27KT 5SM -RA BR BKN020 OVC035
     FM071200 01022G32KT 2SM RA BR SCT004 OVC008
      TEMPO 0713/0717 3/4SM +RA BR OVC004
     FM071900 34027G38KT 3SM -RA BR OVC007
     FM080000 33017G27KT P6SM BKN030 OVC060
      AMD LTD TO CLD VIS AND WIND TIL 071100=

USA.gov is the U.S. government's official web portal to all federal, state and local government web resources and services.